createdAt,value
2022-12-01T00:00:32.172Z,100445.03
2022-12-01T00:03:37.122Z,100440.37
2022-12-01T00:06:42.320Z,100444.53
2022-12-01T00:10:04.320Z,100451.31
2022-12-01T00:13:07.482Z,100446.22
2022-12-01T00:16:13.273Z,100446.72
2022-12-01T00:19:16.570Z,100443.53
2022-12-01T00:22:20.041Z,100437.69
2022-12-01T00:25:23.050Z,100436.13
2022-12-01T00:28:26.695Z,100445.75
2022-12-01T00:31:29.788Z,100448.41
2022-12-01T00:34:34.190Z,100454.63
2022-12-01T00:37:39.316Z,100455.84
2022-12-01T00:40:43.160Z,100462.69
2022-12-01T00:43:46.719Z,100469.50
2022-12-01T00:46:50.536Z,100475.16
2022-12-01T00:49:54.049Z,100479.75
2022-12-01T00:52:57.499Z,100473.59
2022-12-01T00:56:01.177Z,100477.56
2022-12-01T00:59:04.484Z,100478.03
2022-12-01T01:02:08.447Z,100477.06
2022-12-01T01:05:12.285Z,100485.16
2022-12-01T01:08:15.647Z,100472.53
2022-12-01T01:11:21.132Z,100472.06
2022-12-01T01:14:24.841Z,100469.06
2022-12-01T01:17:28.556Z,100464.69
2022-12-01T01:20:32.154Z,100470.03
2022-12-01T01:23:36.960Z,100465.59
2022-12-01T01:26:39.896Z,100469.84
2022-12-01T01:29:44.027Z,100467.41
2022-12-01T01:32:47.378Z,100467.94
2022-12-01T01:35:51.377Z,100464.59
2022-12-01T01:38:55.409Z,100458.75
2022-12-01T01:41:58.812Z,100454.91
2022-12-01T01:45:02.130Z,100452.84
2022-12-01T01:48:05.951Z,100452.03
2022-12-01T01:51:09.685Z,100445.72
2022-12-01T01:54:19.540Z,100455.03
2022-12-01T01:57:29.781Z,100444.91
2022-12-01T02:00:33.606Z,100443.34
2022-12-01T02:03:39.399Z,100438.16
2022-12-01T02:06:44.715Z,100443.22
2022-12-01T02:09:48.462Z,100461.38
2022-12-01T02:13:10.539Z,100452.88
2022-12-01T02:16:43.138Z,100455.94
2022-12-01T02:20:14.036Z,100463.94
2022-12-01T02:23:41.507Z,100460.13
2022-12-01T02:26:50.496Z,100467.97
2022-12-01T02:30:01.490Z,100469.00
2022-12-01T02:33:13.549Z,100476.12
2022-12-01T02:36:38.361Z,100465.97
2022-12-01T02:39:51.930Z,100465.47
2022-12-01T02:43:21.186Z,100467.69
2022-12-01T02:46:30.492Z,100459.94
2022-12-01T02:49:37.503Z,100458.81
2022-12-01T02:52:41.636Z,100462.66
2022-12-01T02:55:53.031Z,100454.34
2022-12-01T02:58:56.209Z,100451.03
2022-12-01T03:02:08.991Z,100453.84
2022-12-01T03:05:24.213Z,100445.78
2022-12-01T03:08:35.716Z,100456.19
2022-12-01T03:11:57.262Z,100443.72
2022-12-01T03:15:51.456Z,100431.22
2022-12-01T03:19:00.912Z,100429.78
2022-12-01T03:22:27.354Z,100429.78
2022-12-01T03:25:32.493Z,100423.69
2022-12-01T03:28:40.632Z,100436.97
2022-12-01T03:31:53.281Z,100432.03
2022-12-01T03:35:01.704Z,100431.94
2022-12-01T03:38:25.347Z,100426.91
2022-12-01T03:41:51.835Z,100420.09
2022-12-01T03:44:57.837Z,100421.38
2022-12-01T03:48:01.360Z,100413.81
2022-12-01T03:51:10.375Z,100414.41
2022-12-01T03:54:43.286Z,100420.03
2022-12-01T03:57:52.396Z,100434.31
2022-12-01T04:00:57.746Z,100434.16
2022-12-01T04:04:11.602Z,100438.66
2022-12-01T04:07:14.969Z,100442.44
2022-12-01T04:10:18.529Z,100441.25
2022-12-01T04:13:25.656Z,100440.56
2022-12-01T04:16:28.628Z,100441.47
2022-12-01T04:19:32.183Z,100445.03
2022-12-01T04:22:35.269Z,100438.78
2022-12-01T04:25:38.262Z,100447.19
2022-12-01T04:28:41.274Z,100441.97
2022-12-01T04:31:45.309Z,100440.25
2022-12-01T04:34:48.537Z,100435.50
2022-12-01T04:37:51.566Z,100435.50
2022-12-01T04:40:55.447Z,100442.06
2022-12-01T04:43:58.531Z,100431.75
2022-12-01T04:47:02.124Z,100434.03
2022-12-01T04:50:06.114Z,100432.84
2022-12-01T04:53:09.907Z,100428.78
2022-12-01T04:56:12.961Z,100445.50
2022-12-01T04:59:17.390Z,100438.75
2022-12-01T05:02:20.578Z,100451.06
2022-12-01T05:05:24.281Z,100450.56
2022-12-01T05:08:27.857Z,100452.44
2022-12-01T05:11:32.592Z,100446.91
2022-12-01T05:14:37.379Z,100458.31
2022-12-01T05:17:42.413Z,100473.56
2022-12-01T05:20:57.485Z,100473.12
2022-12-01T05:24:00.874Z,100480.91
2022-12-01T05:27:04.922Z,100476.75
2022-12-01T05:30:09.076Z,100476.94
2022-12-01T05:33:12.511Z,100482.28
2022-12-01T05:36:16.880Z,100483.47
2022-12-01T05:39:19.901Z,100489.19
2022-12-01T05:42:24.268Z,100489.34
2022-12-01T05:45:27.722Z,100486.16
2022-12-01T05:48:31.353Z,100488.06
2022-12-01T05:51:34.365Z,100489.41
2022-12-01T05:54:40.902Z,100492.31
2022-12-01T05:57:44.587Z,100489.84
2022-12-01T06:00:48.208Z,100491.94
2022-12-01T06:03:53.203Z,100485.22
2022-12-01T06:06:56.389Z,100476.78
2022-12-01T06:10:00.399Z,100477.34
2022-12-01T06:13:03.336Z,100479.44
2022-12-01T06:16:07.201Z,100491.16
2022-12-01T06:19:10.576Z,100493.44
2022-12-01T06:22:14.353Z,100492.34
2022-12-01T06:25:17.781Z,100493.88
2022-12-01T06:28:22.451Z,100488.31
2022-12-01T06:31:27.152Z,100481.47
2022-12-01T06:34:33.599Z,100483.72
2022-12-01T06:37:38.098Z,100486.09
2022-12-01T06:40:43.773Z,100494.09
2022-12-01T06:43:46.692Z,100496.97
2022-12-01T06:46:55.389Z,100503.41
2022-12-01T06:49:58.513Z,100505.00
2022-12-01T06:53:02.446Z,100500.09
2022-12-01T06:56:06.474Z,100520.59
2022-12-01T06:59:10.233Z,100520.81
2022-12-01T07:02:13.669Z,100527.19
2022-12-01T07:05:17.185Z,100532.78
2022-12-01T07:08:20.287Z,100530.62
2022-12-01T07:11:23.546Z,100519.56
2022-12-01T07:14:27.454Z,100522.25
2022-12-01T07:17:30.780Z,100517.34
2022-12-01T07:20:34.204Z,100514.87
2022-12-01T07:23:37.552Z,100523.31
2022-12-01T07:26:41.349Z,100520.78
2022-12-01T07:29:45.166Z,100515.28
2022-12-01T07:32:48.878Z,100519.88
2022-12-01T07:35:54.094Z,100516.72
2022-12-01T07:38:57.189Z,100517.44
2022-12-01T07:42:01.576Z,100522.09
2022-12-01T07:45:05.096Z,100513.94
2022-12-01T07:48:08.353Z,100512.69
2022-12-01T07:51:16.936Z,100504.19
2022-12-01T07:54:21.447Z,100504.16
2022-12-01T07:57:24.990Z,100505.47
2022-12-01T08:00:29.035Z,100502.88
2022-12-01T08:03:32.662Z,100510.44
2022-12-01T08:06:35.714Z,100514.59
2022-12-01T08:09:38.982Z,100514.28
2022-12-01T08:12:42.176Z,100521.03
2022-12-01T08:15:45.280Z,100512.69
2022-12-01T08:18:48.535Z,100516.09
2022-12-01T08:21:52.259Z,100519.47
2022-12-01T08:24:55.337Z,100512.81
2022-12-01T08:28:00.786Z,100523.53
2022-12-01T08:31:12.431Z,100532.25
2022-12-01T08:34:15.649Z,100525.88
2022-12-01T08:37:18.686Z,100541.22
2022-12-01T08:40:22.510Z,100539.13
2022-12-01T08:43:55.998Z,100539.31
2022-12-01T08:46:50.197Z,100538.25
2022-12-01T08:49:53.506Z,100534.75
2022-12-01T08:52:56.707Z,100535.78
2022-12-01T08:56:05.552Z,100529.97
2022-12-01T08:59:09.350Z,100526.16
2022-12-01T09:02:16.621Z,100526.03
2022-12-01T09:05:20.249Z,100531.87
2022-12-01T09:08:32.266Z,100535.97
2022-12-01T09:11:36.124Z,100542.72
2022-12-01T09:14:41.007Z,100544.44
2022-12-01T09:17:44.552Z,100540.41
2022-12-01T09:20:48.066Z,100532.25
2022-12-01T09:23:52.086Z,100531.38
2022-12-01T09:26:56.645Z,100538.13
2022-12-01T09:30:00.102Z,100539.97
2022-12-01T09:33:03.137Z,100528.87
2022-12-01T09:36:08.713Z,100534.47
2022-12-01T09:39:14.632Z,100531.75
2022-12-01T09:42:22.446Z,100534.12
2022-12-01T09:45:28.293Z,100539.34
2022-12-01T09:48:44.161Z,100527.81
2022-12-01T09:51:47.116Z,100520.19
2022-12-01T09:54:50.897Z,100522.66
2022-12-01T09:57:56.558Z,100516.44
2022-12-01T10:01:00.793Z,100513.16
2022-12-01T10:04:25.482Z,100510.78
2022-12-01T10:07:40.618Z,100512.06
2022-12-01T10:10:49.432Z,100512.38
2022-12-01T10:13:52.580Z,100514.59
2022-12-01T10:17:11.072Z,100501.13
2022-12-01T10:20:20.059Z,100505.72
2022-12-01T10:24:03.417Z,100505.25
2022-12-01T10:27:19.407Z,100506.53
2022-12-01T10:30:24.264Z,100509.19
2022-12-01T10:33:34.534Z,100496.19
2022-12-01T10:36:37.842Z,100490.91
2022-12-01T10:39:43.956Z,100485.13
2022-12-01T10:42:51.085Z,100479.94
2022-12-01T10:45:54.717Z,100482.22
2022-12-01T10:48:59.707Z,100480.31
2022-12-01T10:52:02.796Z,100474.37
2022-12-01T10:55:25.019Z,100468.69
2022-12-01T10:58:29.229Z,100473.72
2022-12-01T11:01:36.115Z,100469.28
2022-12-01T11:04:47.255Z,100466.81
2022-12-01T11:07:50.758Z,100461.28
2022-12-01T11:10:55.257Z,100468.53
2022-12-01T11:14:01.499Z,100459.72
2022-12-01T11:17:23.040Z,100450.59
2022-12-01T11:20:38.610Z,100452.28
2022-12-01T11:23:47.096Z,100440.59
2022-12-01T11:26:51.053Z,100450.63
2022-12-01T11:30:00.749Z,100439.16
2022-12-01T11:33:05.935Z,100444.13
2022-12-01T11:36:16.050Z,100444.06
2022-12-01T11:39:29.015Z,100434.09
2022-12-01T11:42:34.495Z,100439.97
2022-12-01T11:45:40.315Z,100430.63
2022-12-01T11:48:58.131Z,100442.72
2022-12-01T11:52:17.480Z,100424.84
2022-12-01T11:55:25.925Z,100424.97
2022-12-01T11:58:29.257Z,100422.09
2022-12-01T12:01:35.404Z,100419.75
2022-12-01T12:04:57.168Z,100424.66
2022-12-01T12:08:09.787Z,100430.81
2022-12-01T12:11:22.135Z,100428.91
2022-12-01T12:14:37.255Z,100427.94
2022-12-01T12:18:10.186Z,100421.09
2022-12-01T12:21:34.048Z,100419.19
2022-12-01T12:24:46.579Z,100417.22
2022-12-01T12:28:08.408Z,100420.31
2022-12-01T12:31:22.277Z,100421.53
2022-12-01T12:34:28.417Z,100419.28
2022-12-01T12:37:41.421Z,100419.13
2022-12-01T12:40:50.271Z,100423.44
2022-12-01T12:44:24.223Z,100424.34
2022-12-01T12:47:49.923Z,100418.34
2022-12-01T12:50:59.909Z,100422.22
2022-12-01T12:54:12.552Z,100419.66
2022-12-01T12:57:30.324Z,100421.50
2022-12-01T13:00:34.172Z,100414.91
2022-12-01T13:03:53.433Z,100409.78
2022-12-01T13:07:14.279Z,100417.16
2022-12-01T13:10:24.120Z,100412.41
2022-12-01T13:14:10.568Z,100408.22
2022-12-01T13:17:20.018Z,100403.19
2022-12-01T13:20:27.773Z,100406.28
2022-12-01T13:23:31.104Z,100415.28
2022-12-01T13:26:36.631Z,100406.63
2022-12-01T13:29:48.404Z,100406.44
2022-12-01T13:32:59.963Z,100398.62
2022-12-01T13:36:44.734Z,100406.09
2022-12-01T13:39:36.503Z,100405.84
2022-12-01T13:42:40.666Z,100394.47
2022-12-01T13:45:43.886Z,100407.09
2022-12-01T13:48:47.018Z,100404.66
2022-12-01T13:52:19.369Z,100401.75
2022-12-01T13:55:29.008Z,100403.78
2022-12-01T13:58:34.949Z,100394.09
2022-12-01T14:01:46.561Z,100388.50
2022-12-01T14:04:50.274Z,100391.28
2022-12-01T14:07:54.535Z,100394.00
2022-12-01T14:11:04.473Z,100400.94
2022-12-01T14:14:13.594Z,100392.97
2022-12-01T14:17:35.449Z,100399.84
2022-12-01T14:20:46.139Z,100395.88
2022-12-01T14:24:01.474Z,100394.34
2022-12-01T14:27:05.934Z,100394.16
2022-12-01T14:30:41.280Z,100397.44
2022-12-01T14:33:49.491Z,100396.91
2022-12-01T14:36:56.147Z,100395.50
2022-12-01T14:40:04.438Z,100396.34
2022-12-01T14:43:31.085Z,100384.53
2022-12-01T14:46:52.124Z,100395.41
2022-12-01T14:49:58.618Z,100394.91
2022-12-01T14:53:26.266Z,100387.97
2022-12-01T14:56:29.834Z,100391.00
2022-12-01T14:59:34.406Z,100390.78
2022-12-01T15:02:41.804Z,100391.38
2022-12-01T15:05:45.151Z,100393.53
2022-12-01T15:12:33.908Z,100393.50
2022-12-01T15:15:37.864Z,100394.25
2022-12-01T15:18:40.946Z,100390.00
2022-12-01T15:21:44.242Z,100389.72
2022-12-01T15:24:47.548Z,100386.13
2022-12-01T15:28:13.772Z,100385.03
2022-12-01T15:31:17.074Z,100386.16
2022-12-01T15:34:25.090Z,100388.25
2022-12-01T15:37:30.760Z,100386.34
2022-12-01T15:44:05.628Z,100383.37
2022-12-01T15:47:31.418Z,100381.47
2022-12-01T15:50:46.254Z,100389.69
2022-12-01T15:53:54.183Z,100389.37
2022-12-01T15:56:59.267Z,100398.69
2022-12-01T16:00:05.099Z,100396.97
2022-12-01T16:03:15.293Z,100397.91
2022-12-01T16:06:23.304Z,100394.59
2022-12-01T16:09:36.701Z,100397.75
2022-12-01T16:12:40.609Z,100402.00
2022-12-01T16:15:44.351Z,100411.47
2022-12-01T16:19:08.139Z,100410.53
2022-12-01T16:22:10.932Z,100401.50
2022-12-01T16:25:39.362Z,100405.47
2022-12-01T16:28:42.441Z,100413.06
2022-12-01T16:32:12.728Z,100402.63
2022-12-01T16:35:30.519Z,100397.25
2022-12-01T16:38:34.662Z,100409.25
2022-12-01T16:41:45.084Z,100409.41
2022-12-01T16:44:50.022Z,100395.66
2022-12-01T16:47:53.489Z,100406.69
2022-12-01T16:50:57.389Z,100411.28
2022-12-01T16:54:00.675Z,100410.78
2022-12-01T16:57:05.976Z,100409.38
2022-12-01T17:00:09.653Z,100416.00
2022-12-01T17:03:17.214Z,100406.19
2022-12-01T17:06:20.761Z,100410.00
2022-12-01T17:09:24.006Z,100413.78
2022-12-01T17:12:27.065Z,100411.88
2022-12-01T17:15:30.493Z,100414.56
2022-12-01T17:18:36.079Z,100412.69
2022-12-01T17:21:40.737Z,100409.66
2022-12-01T17:24:43.685Z,100413.44
2022-12-01T17:27:47.640Z,100414.41
2022-12-01T17:30:53.650Z,100410.94
2022-12-01T17:33:58.331Z,100416.31
2022-12-01T17:37:02.646Z,100421.69
2022-12-01T17:40:07.492Z,100417.56
2022-12-01T17:43:10.793Z,100415.69
2022-12-01T17:46:16.018Z,100414.09
2022-12-01T17:49:19.725Z,100420.56
2022-12-01T17:52:28.042Z,100413.63
2022-12-01T17:55:31.464Z,100415.34
2022-12-01T17:58:35.368Z,100414.19
2022-12-01T18:01:38.853Z,100414.03
2022-12-01T18:04:42.709Z,100410.41
2022-12-01T18:07:45.961Z,100408.00
2022-12-01T18:10:49.522Z,100409.75
2022-12-01T18:13:53.566Z,100402.78
2022-12-01T18:16:57.072Z,100405.78
2022-12-01T18:20:00.611Z,100402.31
2022-12-01T18:23:04.607Z,100414.13
2022-12-01T18:26:16.191Z,100413.19
2022-12-01T18:29:29.614Z,100408.72
2022-12-01T18:32:33.082Z,100410.94
2022-12-01T18:35:41.983Z,100408.06
2022-12-01T18:38:47.758Z,100403.03
2022-12-01T18:41:52.308Z,100406.00
2022-12-01T18:44:57.005Z,100405.84
2022-12-01T18:48:03.544Z,100411.53
2022-12-01T18:51:08.439Z,100401.88
2022-12-01T18:54:14.539Z,100406.13
2022-12-01T18:57:19.677Z,100405.94
2022-12-01T19:00:23.725Z,100399.44
2022-12-01T19:03:32.385Z,100399.84
2022-12-01T19:06:38.299Z,100409.56
2022-12-01T19:09:42.247Z,100409.38
2022-12-01T19:12:46.968Z,100410.78
2022-12-01T19:15:50.626Z,100400.69
2022-12-01T19:18:55.782Z,100406.44
2022-12-01T19:21:59.547Z,100411.75
2022-12-01T19:25:04.782Z,100403.34
2022-12-01T19:28:10.838Z,100412.59
2022-12-01T19:31:17.822Z,100408.81
2022-12-01T19:34:21.548Z,100410.09
2022-12-01T19:37:25.891Z,100408.72
2022-12-01T19:40:29.314Z,100415.03
2022-12-01T19:43:35.250Z,100408.88
2022-12-01T19:46:39.153Z,100412.34
2022-12-01T19:49:52.308Z,100421.16
2022-12-01T19:52:55.890Z,100416.63
2022-12-01T19:56:03.662Z,100424.53
2022-12-01T19:59:08.578Z,100422.44
2022-12-01T20:02:13.975Z,100428.50
2022-12-01T20:05:17.710Z,100425.69
2022-12-01T20:08:21.407Z,100431.94
2022-12-01T20:11:26.682Z,100428.13
2022-12-01T20:14:30.628Z,100426.84
2022-12-01T20:17:37.225Z,100427.13
2022-12-01T20:20:40.673Z,100435.31
2022-12-01T20:23:48.966Z,100438.47
2022-12-01T20:26:57.011Z,100437.56
2022-12-01T20:30:00.390Z,100435.38
2022-12-01T20:33:03.910Z,100437.56
2022-12-01T20:36:08.553Z,100440.53
2022-12-01T20:39:12.949Z,100440.53
2022-12-01T20:42:19.311Z,100432.69
2022-12-01T20:45:24.064Z,100437.66
2022-12-01T20:48:28.250Z,100437.66
2022-12-01T20:51:35.205Z,100434.69
2022-12-01T20:54:39.409Z,100433.59
2022-12-01T20:57:44.494Z,100443.72
2022-12-01T21:00:49.305Z,100444.09
2022-12-01T21:03:52.808Z,100446.28
2022-12-01T21:06:59.160Z,100449.06
2022-12-01T21:10:03.216Z,100446.38
2022-12-01T21:13:39.724Z,100440.53
2022-12-01T21:16:48.324Z,100445.09
2022-12-01T21:20:05.524Z,100443.94
2022-12-01T21:23:13.666Z,100448.62
2022-12-01T21:26:17.451Z,100453.47
2022-12-01T21:29:23.195Z,100446.75
2022-12-01T21:32:31.895Z,100448.16
2022-12-01T21:35:35.034Z,100443.13
2022-12-01T21:38:38.424Z,100443.91
2022-12-01T21:41:41.613Z,100452.66
2022-12-01T21:44:45.694Z,100450.16
2022-12-01T21:47:48.704Z,100453.03
2022-12-01T21:51:05.243Z,100456.63
2022-12-01T21:54:13.883Z,100461.00
2022-12-01T21:57:46.256Z,100459.69
2022-12-01T22:00:49.394Z,100475.66
2022-12-01T22:03:54.902Z,100467.72
2022-12-01T22:07:01.447Z,100462.47
2022-12-01T22:10:43.299Z,100462.56
2022-12-01T22:14:10.003Z,100470.09
2022-12-01T22:17:21.126Z,100462.75
2022-12-01T22:20:24.327Z,100463.94
2022-12-01T22:23:34.212Z,100464.31
2022-12-01T22:26:40.395Z,100462.81
2022-12-01T22:29:45.962Z,100457.19
2022-12-01T22:33:00.269Z,100460.16
2022-12-01T22:36:23.065Z,100460.25
2022-12-01T22:39:34.414Z,100454.19
2022-12-01T22:42:38.115Z,100448.66
2022-12-01T22:45:43.684Z,100451.13
2022-12-01T22:48:50.705Z,100459.22
2022-12-01T22:52:03.790Z,100459.88
2022-12-01T22:55:15.795Z,100457.81
2022-12-01T22:58:28.603Z,100447.69
2022-12-01T23:01:34.135Z,100453.25
2022-12-01T23:04:42.475Z,100450.69
2022-12-01T23:07:46.282Z,100443.44
2022-12-01T23:10:50.093Z,100445.34
2022-12-01T23:13:53.944Z,100431.03
2022-12-01T23:17:08.529Z,100432.72
2022-12-01T23:20:15.434Z,100440.66
2022-12-01T23:23:27.373Z,100432.34
2022-12-01T23:26:31.266Z,100438.69
2022-12-01T23:29:35.098Z,100433.03
2022-12-01T23:32:38.899Z,100434.47
2022-12-01T23:35:54.980Z,100434.47
2022-12-01T23:39:01.883Z,100438.62
2022-12-01T23:42:06.586Z,100443.69
2022-12-01T23:45:22.868Z,100438.62
2022-12-01T23:48:33.319Z,100436.34
2022-12-01T23:51:57.622Z,100439.88
2022-12-01T23:55:08.017Z,100437.91
2022-12-01T23:58:13.830Z,100440.94
